Time;durP1;ratioP1;P1;durP2;ratioP2;P2;SDS_P1;SDS_P2;PMS_P1;PMS_P2;Temp;Humidity;BMP_temperature;BMP_pressure;BME280_temperature;BME280_humidity;BME280_pressure;Samples;Min_cycle;Max_cycle;Signal;HPM_P1;HPM_P2
2023/11/30 07:48:11;;;;;;;46.60;22.00;;;;;;;0.10;95.10;99160.41;107371;1298;543426;-90
2023/11/30 07:52:05;;;;;;;52.70;22.30;;;;;;;0.13;95.24;99152.65;109294;1279;22608;-88
2023/11/30 07:56:20;;;;;;;51.90;23.50;;;;;;;0.17;95.36;99150.81;109218;1283;23331;-91
2023/11/30 08:00:36;;;;;;;55.70;23.50;;;;;;;0.21;95.26;99157.92;107143;1275;5402192;-90
2023/11/30 08:04:30;;;;;;;48.70;21.70;;;;;;;0.25;95.32;99161.42;110030;1272;22550;-90
2023/11/30 08:08:02;;;;;;;50.00;22.20;;;;;;;0.24;95.30;99159.22;109988;1273;22536;-90
2023/11/30 08:11:22;;;;;;;48.00;21.00;;;;;;;0.24;95.42;99158.38;109869;1267;23549;-90
2023/11/30 08:14:57;;;;;;;52.60;22.50;;;;;;;0.24;95.50;99159.38;110911;1272;22400;-90
2023/11/30 08:18:18;;;;;;;57.30;25.20;;;;;;;0.29;95.66;99161.70;110970;1272;22912;-89
2023/11/30 08:21:51;;;;;;;60.10;26.60;;;;;;;0.33;95.70;99158.43;110907;1271;22595;-89
2023/11/30 08:25:17;;;;;;;60.20;26.70;;;;;;;0.35;95.63;99158.15;110934;1266;22511;-89
2023/11/30 08:28:32;;;;;;;50.70;23.50;;;;;;;0.37;95.61;99157.55;110912;1269;22108;-89
2023/11/30 08:31:33;;;;;;;53.10;22.80;;;;;;;0.40;95.59;99156.04;110871;1267;22163;-88
2023/11/30 08:34:25;;;;;;;58.80;25.40;;;;;;;0.43;95.51;99156.33;110873;1267;22129;-89
2023/11/30 08:37:38;;;;;;;61.10;25.50;;;;;;;0.47;95.43;99160.27;110874;1269;22137;-88
2023/11/30 08:40:32;;;;;;;65.00;27.50;;;;;;;0.52;95.28;99158.03;111083;1269;22250;-88
2023/11/30 08:43:26;;;;;;;68.90;30.50;;;;;;;0.57;95.23;99164.69;110155;1263;22550;-89
2023/11/30 08:46:21;;;;;;;88.10;35.80;;;;;;;0.62;94.97;99162.84;110037;1266;23012;-88
2023/11/30 08:49:18;;;;;;;80.30;31.80;;;;;;;0.65;94.82;99167.14;110064;1269;26959;-88
2023/11/30 08:52:13;;;;;;;67.50;27.90;;;;;;;0.67;94.67;99167.62;110017;1263;23291;-88
2023/11/30 08:55:07;;;;;;;72.60;29.30;;;;;;;0.66;94.46;99173.59;109993;1269;22562;-87
2023/11/30 08:58:01;;;;;;;68.50;26.90;;;;;;;0.68;94.66;99178.17;109906;1266;22546;-87
2023/11/30 09:00:53;;;;;;;91.30;33.70;;;;;;;0.72;94.67;99180.27;109844;1269;23712;-87
2023/11/30 09:03:44;;;;;;;91.20;32.90;;;;;;;0.76;94.93;99175.35;110022;1269;22711;-87
2023/11/30 09:06:36;;;;;;;80.90;33.50;;;;;;;0.81;95.01;99175.66;109893;1266;22542;-87
2023/11/30 09:09:28;;;;;;;99.90;39.60;;;;;;;0.86;95.13;99177.65;109943;1269;22560;-86
2023/11/30 09:12:19;;;;;;;99.10;43.40;;;;;;;0.87;95.00;99180.52;109982;1269;22544;-87
2023/11/30 09:15:13;;;;;;;108.40;44.70;;;;;;;0.89;94.95;99180.20;109973;1266;22567;-86
2023/11/30 09:18:07;;;;;;;86.80;36.90;;;;;;;0.93;94.98;99177.20;109932;1263;23280;-88
2023/11/30 09:20:59;;;;;;;85.40;32.90;;;;;;;0.97;95.04;99177.30;109966;1266;26179;-87
2023/11/30 09:24:30;;;;;;;68.50;29.10;;;;;;;1.03;94.80;99170.13;109951;1266;22552;-86
2023/11/30 09:27:22;;;;;;;56.60;24.80;;;;;;;1.08;94.56;99166.58;109923;1269;22597;-86
2023/11/30 09:30:15;;;;;;;49.40;21.20;;;;;;;1.12;94.17;99162.07;109958;1266;22551;-84
2023/11/30 09:33:30;;;;;;;46.40;18.90;;;;;;;1.17;94.07;99159.68;109740;1266;25325;-88
2023/11/30 09:36:42;;;;;;;35.00;14.40;;;;;;;1.25;93.86;99156.08;111239;1266;22165;-86
2023/11/30 09:39:38;;;;;;;31.70;12.30;;;;;;;1.30;93.41;99157.86;111243;1269;22231;-85
2023/11/30 09:42:51;;;;;;;31.70;11.90;;;;;;;1.33;93.19;99155.17;111133;1269;22160;-87
2023/11/30 09:45:44;;;;;;;27.90;10.60;;;;;;;1.35;92.94;99148.96;111227;1266;22087;-86
2023/11/30 09:48:55;;;;;;;34.00;11.50;;;;;;;1.38;92.59;99148.89;109476;1269;23434;-83
2023/11/30 09:51:51;;;;;;;33.70;12.30;;;;;;;1.42;92.71;99146.92;109910;1266;22556;-84
2023/11/30 09:55:02;;;;;;;31.70;10.80;;;;;;;1.45;92.53;99132.98;110033;1266;22627;-83
2023/11/30 09:57:53;;;;;;;29.30;12.10;;;;;;;1.43;92.21;99133.36;110004;1266;22677;-82
2023/11/30 10:00:44;;;;;;;40.60;16.90;;;;;;;1.43;92.48;99128.96;108699;1269;23883;-82
2023/11/30 10:03:38;;;;;;;48.20;18.80;;;;;;;1.42;92.48;99125.02;108737;1266;22634;-82
2023/11/30 10:06:29;;;;;;;39.00;16.60;;;;;;;1.38;92.14;99121.13;111261;1263;22234;-82
2023/11/30 10:09:20;;;;;;;46.70;20.40;;;;;;;1.34;92.06;99120.50;111208;1266;22819;-82
2023/11/30 10:12:29;;;;;;;;;;;;;;;1.32;92.03;99121.26;111223;1263;22416;-82
2023/11/30 10:15:40;;;;;;;38.80;17.00;;;;;;;1.30;92.05;99120.14;111214;1266;22858;-83
2023/11/30 10:18:33;;;;;;;32.50;13.70;;;;;;;1.33;92.24;99112.11;111187;1266;22239;-83
2023/11/30 10:21:49;;;;;;;40.30;16.90;;;;;;;1.36;92.00;99108.41;111239;1266;22144;-84
2023/11/30 10:24:40;;;;;;;32.60;12.60;;;;;;;1.38;91.93;99104.70;111157;1269;22095;-83
2023/11/30 10:27:33;;;;;;;31.70;12.00;;;;;;;1.41;91.72;99103.20;111202;1263;22105;-84
2023/11/30 10:31:23;;;;;;;29.80;11.50;;;;;;;1.40;91.08;99100.01;111213;1266;23054;-83
2023/11/30 10:34:34;;;;;;;27.90;10.00;;;;;;;1.41;91.25;99094.00;111192;1266;22549;-83
2023/11/30 10:38:28;;;;;;;37.70;13.90;;;;;;;1.42;90.92;99098.94;111151;1270;22131;-84
2023/11/30 10:41:49;;;;;;;33.60;13.10;;;;;;;1.39;90.94;99102.31;111150;1266;22922;-83
2023/11/30 10:45:06;;;;;;;38.40;15.30;;;;;;;1.40;91.10;99103.15;111204;1266;22422;-83
2023/11/30 10:48:15;;;;;;;40.00;15.90;;;;;;;1.40;90.87;99101.90;111195;1266;22260;-83
2023/11/30 10:51:10;;;;;;;40.00;16.90;;;;;;;1.40;91.02;99103.37;111203;1263;22181;-83
2023/11/30 10:54:32;;;;;;;40.50;15.40;;;;;;;1.45;91.35;99101.39;111240;1266;22184;-84
2023/11/30 10:57:23;;;;;;;36.90;16.40;;;;;;;1.50;91.01;99103.52;111218;1269;22209;-83
2023/11/30 11:00:58;;;;;;;43.70;18.20;;;;;;;1.58;91.25;99102.98;111193;1266;22204;-84
2023/11/30 11:03:55;;;;;;;38.70;17.10;;;;;;;1.69;90.96;99103.90;111191;1269;22212;-84
2023/11/30 11:06:48;;;;;;;42.20;16.90;;;;;;;1.76;90.81;99103.39;111198;1264;22145;-84
2023/11/30 11:09:44;;;;;;;41.40;16.50;;;;;;;1.84;90.63;99104.84;111186;1266;22536;-84
2023/11/30 11:12:46;;;;;;;31.80;12.50;;;;;;;1.93;90.55;99100.80;111235;1269;22202;-84
2023/11/30 11:16:18;;;;;;;28.00;10.30;;;;;;;2.08;90.56;99103.26;111228;1266;22120;-84
2023/11/30 11:19:32;;;;;;;29.40;10.50;;;;;;;2.19;90.28;99103.73;111204;1266;22346;-84
2023/11/30 11:23:12;;;;;;;31.40;11.50;;;;;;;2.28;90.16;99094.09;111165;1270;22791;-84
2023/11/30 11:26:24;;;;;;;31.90;13.30;;;;;;;2.33;89.93;99096.35;111149;1263;22118;-84
2023/11/30 11:29:16;;;;;;;29.20;11.00;;;;;;;2.36;89.70;99092.41;111203;1263;22266;-84
2023/11/30 11:32:10;;;;;;;30.60;11.90;;;;;;;2.35;89.24;99094.61;111179;1269;22300;-83
2023/11/30 11:35:22;;;;;;;30.00;10.50;;;;;;;2.30;89.06;99093.45;111164;1259;22666;-84
2023/11/30 11:38:19;;;;;;;28.20;10.70;;;;;;;2.27;88.93;99089.55;111146;1269;22153;-83
2023/11/30 11:41:33;;;;;;;31.20;11.20;;;;;;;2.27;89.00;99093.11;111234;1269;22376;-83
2023/11/30 11:44:25;;;;;;;24.00;9.80;;;;;;;2.30;88.90;99090.17;111190;1262;22087;-83
2023/11/30 11:47:16;;;;;;;31.30;12.30;;;;;;;2.29;88.75;99085.25;111226;1260;22288;-83
2023/11/30 11:50:27;;;;;;;29.60;11.20;;;;;;;2.27;88.59;99077.28;111201;1269;22248;-82
2023/11/30 11:53:18;;;;;;;31.40;12.10;;;;;;;2.26;88.59;99074.80;111216;1264;22221;-82
2023/11/30 11:56:12;;;;;;;29.10;10.30;;;;;;;2.25;88.58;99069.65;111212;1269;22960;-82
2023/11/30 11:59:05;;;;;;;32.10;11.80;;;;;;;2.24;88.60;99063.64;111228;1269;22289;-82
2023/11/30 12:01:59;;;;;;;30.60;11.40;;;;;;;2.21;88.34;99053.11;111176;1270;22427;-82
2023/11/30 12:04:50;;;;;;;27.70;11.50;;;;;;;2.17;88.16;99053.36;111119;1270;22900;-81
2023/11/30 12:07:51;;;;;;;29.80;11.60;;;;;;;2.13;88.03;99054.89;111198;1270;22914;-82
2023/11/30 12:10:44;;;;;;;29.10;10.80;;;;;;;2.10;88.26;99046.70;111181;1270;22960;-82
2023/11/30 12:13:37;;;;;;;29.40;10.70;;;;;;;2.08;88.27;99045.14;111256;1269;22198;-82
2023/11/30 12:16:28;;;;;;;28.90;9.50;;;;;;;2.06;88.13;99036.41;111223;1266;22338;-82
2023/11/30 12:19:19;;;;;;;28.00;9.90;;;;;;;2.06;88.19;99034.76;111196;1269;22663;-82
2023/11/30 12:22:10;;;;;;;28.20;10.20;;;;;;;2.02;88.15;99039.75;111096;1269;22164;-81
2023/11/30 12:25:02;;;;;;;30.30;10.60;;;;;;;2.01;88.18;99041.61;111223;1267;22285;-82
2023/11/30 12:27:54;;;;;;;31.70;12.40;;;;;;;1.98;88.02;99037.41;111232;1266;22375;-80
2023/11/30 12:30:45;;;;;;;26.10;10.30;;;;;;;1.97;88.18;99032.41;111208;1269;22228;-82
2023/11/30 12:33:36;;;;;;;28.70;11.70;;;;;;;1.98;88.24;99027.65;111215;1269;22239;-82
2023/11/30 12:36:27;;;;;;;33.00;11.50;;;;;;;1.95;88.08;99023.14;111235;1267;22759;-82
2023/11/30 12:39:28;;;;;;;31.10;11.30;;;;;;;1.91;87.80;99025.62;111184;1266;22237;-82
2023/11/30 12:42:19;;;;;;;32.80;11.60;;;;;;;1.90;87.92;99023.73;111207;1266;22227;-82
2023/11/30 12:45:12;;;;;;;26.80;10.10;;;;;;;1.87;87.99;99020.20;111167;1269;22916;-82
2023/11/30 12:48:03;;;;;;;30.60;11.20;;;;;;;1.85;87.83;99020.06;111219;1269;22301;-82
2023/11/30 12:50:54;;;;;;;31.50;11.70;;;;;;;1.81;87.98;99019.77;111190;1266;22165;-82
2023/11/30 12:53:44;;;;;;;32.10;10.90;;;;;;;1.80;87.96;99023.75;111184;1263;22231;-82
2023/11/30 12:56:35;;;;;;;31.90;12.50;;;;;;;1.78;87.80;99025.79;111221;1269;22358;-82
2023/11/30 12:59:26;;;;;;;33.60;12.20;;;;;;;1.78;87.89;99027.54;111200;1264;22429;-81
2023/11/30 13:02:18;;;;;;;37.40;13.60;;;;;;;1.79;87.94;99031.66;111196;1269;22800;-82
2023/11/30 13:05:10;;;;;;;30.50;13.40;;;;;;;1.81;88.13;99026.08;111200;1264;22207;-81
2023/11/30 13:08:01;;;;;;;37.80;13.10;;;;;;;1.85;88.11;99026.76;111211;1270;22219;-82
2023/11/30 13:10:53;;;;;;;31.30;12.30;;;;;;;1.86;88.05;99025.61;111146;1270;22161;-82
2023/11/30 13:13:44;;;;;;;35.50;14.00;;;;;;;1.87;88.15;99020.03;111158;1270;22345;-83
2023/11/30 13:16:35;;;;;;;31.10;13.30;;;;;;;1.89;88.17;99017.91;111217;1269;22161;-82
2023/11/30 13:19:28;;;;;;;32.70;14.10;;;;;;;1.89;88.00;99013.60;111231;1266;22297;-82
2023/11/30 13:22:21;;;;;;;33.80;14.40;;;;;;;1.89;88.12;99015.73;111211;1264;22148;-82
2023/11/30 13:25:13;;;;;;;35.40;13.90;;;;;;;1.88;88.16;99012.56;111225;1265;22118;-82
2023/11/30 13:28:04;;;;;;;28.70;12.90;;;;;;;1.87;87.98;99005.88;111210;1269;22256;-82
2023/11/30 13:30:56;;;;;;;35.60;14.30;;;;;;;1.84;87.38;99010.27;111230;1266;22890;-82
2023/11/30 13:33:56;;;;;;;42.60;16.00;;;;;;;1.81;87.69;99015.95;111220;1266;22221;-82
2023/11/30 13:36:47;;;;;;;34.90;14.20;;;;;;;1.78;87.84;99020.02;111233;1267;22960;-82
2023/11/30 13:39:40;;;;;;;35.60;13.90;;;;;;;1.80;88.45;99020.30;111220;1267;22349;-82
2023/11/30 13:42:31;;;;;;;36.60;14.20;;;;;;;1.85;88.45;99020.14;111204;1266;22287;-82
2023/11/30 13:45:24;;;;;;;39.50;16.00;;;;;;;1.84;87.97;99022.05;111197;1264;22952;-82
2023/11/30 13:48:18;;;;;;;42.80;19.40;;;;;;;1.84;88.20;99025.36;111249;1267;22142;-82
2023/11/30 13:51:11;;;;;;;71.40;33.70;;;;;;;1.87;88.55;99026.73;111219;1269;22633;-82
2023/11/30 13:54:02;;;;;;;164.90;57.40;;;;;;;1.85;88.16;99029.23;111242;1266;22133;-82
2023/11/30 13:56:53;;;;;;;224.30;72.20;;;;;;;1.83;88.04;99022.31;111191;1266;22194;-82
2023/11/30 13:59:45;;;;;;;123.20;41.90;;;;;;;1.84;87.91;99022.06;111241;1263;22217;-82
2023/11/30 14:02:39;;;;;;;118.40;43.50;;;;;;;1.83;87.86;99030.43;111189;1264;22095;-82
2023/11/30 14:05:30;;;;;;;102.30;36.50;;;;;;;1.80;87.84;99023.29;111256;1269;22142;-82
2023/11/30 14:08:26;;;;;;;90.20;34.50;;;;;;;1.79;87.79;99016.80;111146;1263;22560;-82
2023/11/30 14:11:20;;;;;;;57.30;23.30;;;;;;;1.77;87.90;99009.02;111238;1263;22990;-82
2023/11/30 14:14:14;;;;;;;67.80;27.20;;;;;;;1.71;88.00;98999.73;111248;1264;22351;-82
2023/11/30 14:17:05;;;;;;;55.30;25.10;;;;;;;1.71;88.39;99007.21;111249;1269;22571;-82
2023/11/30 14:19:57;;;;;;;54.60;22.90;;;;;;;1.72;88.34;99016.70;111170;1270;22596;-83
2023/11/30 14:22:48;;;;;;;52.70;21.90;;;;;;;1.71;88.38;99019.14;111183;1259;22103;-82
2023/11/30 14:25:40;;;;;;;50.60;21.90;;;;;;;1.74;88.53;99019.43;111250;1264;22196;-82
2023/11/30 14:28:33;;;;;;;54.90;25.10;;;;;;;1.75;88.63;99010.83;111250;1269;22902;-83
2023/11/30 14:31:24;;;;;;;54.00;26.30;;;;;;;1.76;88.55;99001.68;111222;1264;22325;-82
2023/11/30 14:34:15;;;;;;;58.00;25.90;;;;;;;1.74;88.57;98997.76;111249;1269;22176;-82
2023/11/30 14:37:06;;;;;;;52.80;23.50;;;;;;;1.70;88.41;98998.50;111248;1264;22412;-82
2023/11/30 14:40:10;;;;;;;56.30;24.60;;;;;;;1.70;88.11;99004.80;111185;1267;22135;-82
2023/11/30 14:43:04;;;;;;;47.90;22.50;;;;;;;1.69;88.21;99003.58;111257;1267;22872;-82
2023/11/30 14:45:55;;;;;;;66.40;27.60;;;;;;;1.68;88.33;99000.17;111244;1266;22146;-82
2023/11/30 14:48:49;;;;;;;77.10;31.80;;;;;;;1.65;88.23;99004.83;111256;1266;22274;-82
2023/11/30 14:51:39;;;;;;;86.40;37.90;;;;;;;1.63;88.23;98997.44;111229;1266;22231;-82
2023/11/30 14:54:30;;;;;;;94.40;39.10;;;;;;;1.60;88.22;98991.65;111226;1269;22248;-83
2023/11/30 14:57:23;;;;;;;98.50;41.20;;;;;;;1.57;88.16;98995.30;111244;1264;22067;-83
2023/11/30 15:00:20;;;;;;;91.20;43.40;;;;;;;1.54;88.07;99001.84;111232;1269;22116;-82
2023/11/30 15:03:12;;;;;;;99.70;45.90;;;;;;;1.49;87.89;99010.04;111248;1267;22832;-82
2023/11/30 15:06:06;;;;;;;106.80;46.60;;;;;;;1.46;87.97;99014.95;111247;1257;22368;-81
2023/11/30 15:08:57;;;;;;;99.50;49.90;;;;;;;1.41;87.80;99010.19;111230;1269;22587;-81
2023/11/30 15:11:48;;;;;;;113.50;54.70;;;;;;;1.35;87.65;99006.23;111230;1265;23429;-82
2023/11/30 15:14:39;;;;;;;115.80;53.60;;;;;;;1.30;87.91;98997.11;111225;1263;22803;-82
2023/11/30 15:17:52;;;;;;;121.00;55.30;;;;;;;1.26;87.78;98999.47;111224;1263;22144;-82
2023/11/30 15:20:48;;;;;;;119.70;58.40;;;;;;;1.21;87.68;99011.96;111244;1264;22157;-82
2023/11/30 15:23:40;;;;;;;129.50;62.10;;;;;;;1.15;87.42;99010.47;111239;1267;22219;-82
2023/11/30 15:26:52;;;;;;;126.10;64.30;;;;;;;1.10;87.75;99009.44;111235;1262;22174;-80
2023/11/30 15:29:52;;;;;;;139.20;66.70;;;;;;;1.06;87.59;99008.89;111124;1263;22141;-83
2023/11/30 15:32:43;;;;;;;135.60;68.80;;;;;;;1.02;87.26;99005.98;109711;1263;22982;-81
2023/11/30 15:35:35;;;;;;;150.80;72.60;;;;;;;0.97;87.30;99001.05;109151;1266;22557;-82
2023/11/30 15:38:51;;;;;;;158.50;77.50;;;;;;;0.90;87.01;99006.62;108979;1263;22645;-81
2023/11/30 15:41:45;;;;;;;172.30;83.80;;;;;;;0.81;86.98;99001.33;111157;1263;22109;-82
2023/11/30 15:44:36;;;;;;;186.40;90.40;;;;;;;0.75;87.00;98995.56;111118;1263;22338;-82
2023/11/30 15:47:25;;;;;;;;;;;;;;;0.67;86.70;98995.98;111205;1262;22563;-82
2023/11/30 15:51:37;;;;;;;152.10;70.60;;;;;;;0.50;86.67;98993.30;111208;1269;22156;-82
2023/11/30 15:54:30;;;;;;;157.80;71.90;;;;;;;0.39;87.16;98995.02;111228;1264;22368;-82
2023/11/30 15:57:42;;;;;;;150.80;69.50;;;;;;;0.35;87.47;98993.96;111230;1257;22752;-82
2023/11/30 16:00:54;;;;;;;139.50;67.60;;;;;;;0.33;87.52;98996.78;111252;1264;22369;-82
2023/11/30 16:03:45;;;;;;;154.50;71.80;;;;;;;0.31;87.33;99004.74;111279;1266;22163;-82
2023/11/30 16:06:56;;;;;;;168.60;78.40;;;;;;;0.27;87.00;99011.77;111231;1269;22234;-82
2023/11/30 16:10:08;;;;;;;163.80;77.50;;;;;;;0.24;87.18;99015.98;111269;1269;22234;-82
2023/11/30 16:14:01;;;;;;;192.00;89.80;;;;;;;0.14;86.87;99011.41;111254;1269;22149;-83
2023/11/30 16:17:36;;;;;;;170.30;83.20;;;;;;;0.05;86.88;99015.15;111242;1263;22119;-83
2023/11/30 16:20:52;;;;;;;175.90;80.10;;;;;;;-0.02;86.85;99017.05;111261;1269;22196;-84
2023/11/30 16:24:06;;;;;;;171.70;81.70;;;;;;;-0.07;87.00;99020.13;111275;1263;22132;-84
2023/11/30 16:27:39;;;;;;;170.20;81.20;;;;;;;-0.14;86.93;99018.52;111155;1263;22908;-83
2023/11/30 16:31:10;;;;;;;169.20;77.30;;;;;;;-0.17;87.22;99015.00;111255;1263;23269;-83
2023/11/30 16:34:44;;;;;;;166.80;79.40;;;;;;;-0.20;87.04;99021.03;111261;1269;23179;-85
2023/11/30 16:37:38;;;;;;;154.30;76.80;;;;;;;-0.27;86.88;99028.39;111114;1263;22215;-84
2023/11/30 16:40:29;;;;;;;164.20;75.20;;;;;;;-0.33;86.84;99030.42;111258;1266;22338;-84
2023/11/30 16:43:41;;;;;;;147.40;68.90;;;;;;;-0.35;87.54;99033.95;111249;1263;22748;-84
2023/11/30 16:46:52;;;;;;;147.60;69.00;;;;;;;-0.35;87.37;99037.15;109841;1269;22608;-84
2023/11/30 16:50:22;;;;;;;151.00;69.40;;;;;;;-0.35;87.58;99040.30;109090;1269;24237;-85
2023/11/30 16:53:46;;;;;;;134.30;67.90;;;;;;;-0.37;87.42;99040.33;109158;1269;22567;-86
2023/11/30 16:56:59;;;;;;;138.70;68.30;;;;;;;-0.39;87.18;99035.39;109062;1266;22597;-86
2023/11/30 17:00:15;;;;;;;163.90;78.00;;;;;;;-0.42;87.12;99035.61;109335;1269;23502;-86
2023/11/30 17:03:07;;;;;;;166.40;82.50;;;;;;;-0.45;87.01;99034.07;109295;1269;22613;-86
2023/11/30 17:06:00;;;;;;;164.70;82.20;;;;;;;-0.49;86.80;99031.84;109414;1261;22559;-84
2023/11/30 17:09:12;;;;;;;174.70;87.40;;;;;;;-0.55;86.94;99027.13;109001;1269;22514;-86
2023/11/30 17:12:24;;;;;;;177.80;89.10;;;;;;;-0.63;86.68;99030.11;111181;1269;22171;-85
2023/11/30 17:15:17;;;;;;;184.30;87.30;;;;;;;-0.71;86.92;99026.15;111160;1263;22166;-86
2023/11/30 17:18:28;;;;;;;173.70;86.90;;;;;;;-0.71;87.39;99024.85;111287;1269;22175;-85
2023/11/30 17:21:23;;;;;;;172.00;83.40;;;;;;;-0.71;87.54;99021.17;111209;1262;22279;-86
2023/11/30 17:24:15;;;;;;;177.00;88.60;;;;;;;-0.72;87.84;99008.80;110503;1262;25229;-87
2023/11/30 17:27:07;;;;;;;173.20;85.80;;;;;;;-0.72;87.79;99009.20;108630;1264;23147;-86
2023/11/30 17:29:59;;;;;;;171.30;81.20;;;;;;;-0.72;87.60;99003.35;108975;1263;25499;-87
2023/11/30 17:33:33;;;;;;;152.20;71.90;;;;;;;-0.76;87.33;99002.66;108941;1263;24193;-89
2023/11/30 17:36:47;;;;;;;133.90;66.00;;;;;;;-0.83;87.12;99002.05;108808;1259;23274;-86
2023/11/30 17:40:02;;;;;;;134.80;65.20;;;;;;;-0.91;86.96;99001.71;108636;1269;22557;-87
2023/11/30 17:42:58;;;;;;;122.80;58.20;;;;;;;-0.95;87.10;99001.30;108678;1262;23885;-86
2023/11/30 17:46:10;;;;;;;117.30;57.80;;;;;;;-0.97;87.21;98999.30;104983;1303;542683;-84
2023/11/30 17:49:01;;;;;;;112.20;55.50;;;;;;;-1.01;87.42;99001.84;108341;1269;22700;-85
2023/11/30 17:52:31;;;;;;;109.50;52.20;;;;;;;-1.06;87.01;98998.29;108255;1275;22660;-87
2023/11/30 17:55:24;;;;;;;103.30;49.50;;;;;;;-1.14;86.76;98994.66;108172;1272;25694;-87
2023/11/30 17:58:37;;;;;;;107.60;49.60;;;;;;;-1.25;86.55;98992.52;106136;1275;4400245;-85
2023/11/30 18:01:29;;;;;;;106.30;50.10;;;;;;;-1.33;86.83;98995.30;108617;1272;25234;-85
2023/11/30 18:04:20;;;;;;;119.40;54.40;;;;;;;-1.38;86.99;98993.07;109011;1265;25364;-83
2023/11/30 18:07:53;;;;;;;111.40;51.20;;;;;;;-1.44;87.28;98985.64;108946;1270;22800;-87
2023/11/30 18:10:46;;;;;;;114.30;53.70;;;;;;;-1.46;87.24;98991.65;108845;1266;22638;-85
2023/11/30 18:14:00;;;;;;;116.40;53.40;;;;;;;-1.50;86.97;98987.20;108409;1273;24234;-84
2023/11/30 18:17:54;;;;;;;106.10;53.30;;;;;;;-1.56;86.80;98986.04;110991;1266;22231;-85
2023/11/30 18:21:07;;;;;;;109.30;53.90;;;;;;;-1.65;86.93;98987.81;109359;1269;22568;-86
2023/11/30 18:24:00;;;;;;;108.50;52.00;;;;;;;-1.72;86.79;98976.39;109563;1269;22570;-86
2023/11/30 18:27:14;;;;;;;105.20;49.00;;;;;;;-1.77;86.94;98966.36;109425;1267;22660;-87
2023/11/30 18:30:08;;;;;;;104.30;53.20;;;;;;;-1.82;87.18;98962.96;109238;1267;22528;-86
2023/11/30 18:33:25;;;;;;;107.20;52.10;;;;;;;-1.88;87.43;98954.73;109559;1267;22641;-90
2023/11/30 18:40:20;;;;;;;117.20;51.80;;;;;;;-1.91;87.67;98947.86;107443;1302;543188;-90
2023/11/30 18:44:16;;;;;;;160.80;67.00;;;;;;;-1.99;87.63;98952.41;109782;1280;22532;-90
2023/11/30 18:47:14;;;;;;;165.10;74.00;;;;;;;-2.14;87.53;98954.15;108425;1271;22545;-86
2023/11/30 18:50:43;;;;;;;194.40;83.50;;;;;;;-2.21;87.60;98964.80;108865;1275;23822;-90
2023/11/30 18:53:59;;;;;;;190.90;80.50;;;;;;;-2.22;87.92;98960.90;105544;1269;5061112;-91
2023/11/30 18:56:54;;;;;;;187.20;84.30;;;;;;;-2.19;87.76;98959.75;109624;1273;24210;-91
2023/11/30 18:59:46;;;;;;;207.00;88.00;;;;;;;-2.18;87.66;98960.98;108771;1268;24226;-87
2023/11/30 19:02:40;;;;;;;198.60;83.10;;;;;;;-2.18;87.64;98962.85;108599;1269;25422;-83
2023/11/30 19:05:52;;;;;;;183.70;83.20;;;;;;;-2.18;87.70;98963.41;108638;1271;25423;-85
2023/11/30 19:09:24;;;;;;;180.40;79.70;;;;;;;-2.19;87.85;98971.70;108368;1273;24451;-84
2023/11/30 19:12:38;;;;;;;203.40;96.60;;;;;;;-2.18;88.08;98973.94;108552;1266;22530;-85
2023/11/30 19:15:52;;;;;;;191.70;93.70;;;;;;;-2.17;88.45;98969.63;108496;1266;22530;-84
2023/11/30 19:19:04;;;;;;;203.10;96.10;;;;;;;-2.16;88.60;98967.20;108578;1270;23067;-88
2023/11/30 19:21:58;;;;;;;197.10;92.70;;;;;;;-2.16;88.74;98963.59;108495;1272;22539;-86
2023/11/30 19:24:50;;;;;;;192.50;91.00;;;;;;;-2.17;88.97;98965.48;108650;1272;23871;-87
2023/11/30 19:27:43;;;;;;;180.70;88.70;;;;;;;-2.14;88.86;98973.09;108682;1269;22560;-86
2023/11/30 19:30:56;;;;;;;186.60;88.20;;;;;;;-2.12;88.97;98968.42;108427;1266;22756;-86
2023/11/30 19:33:50;;;;;;;192.60;89.90;;;;;;;-2.10;89.17;98965.70;108387;1250;26674;-87
2023/11/30 19:36:49;;;;;;;170.90;82.40;;;;;;;-2.07;89.04;98961.91;108444;1272;22658;-87
2023/11/30 19:40:02;;;;;;;145.30;69.00;;;;;;;-2.07;89.20;98957.11;108380;1268;22549;-87
2023/11/30 19:42:56;;;;;;;129.30;63.50;;;;;;;-2.05;89.69;98960.38;108522;1265;24017;-87
2023/11/30 19:46:30;;;;;;;116.90;57.00;;;;;;;-2.04;89.88;98962.39;108526;1272;25159;-86
2023/11/30 19:49:26;;;;;;;116.40;56.40;;;;;;;-2.03;90.05;98958.92;108460;1272;22596;-87
2023/11/30 19:52:20;;;;;;;116.30;57.10;;;;;;;-2.01;89.83;98961.99;108701;1272;24065;-88
2023/11/30 19:55:14;;;;;;;119.90;56.20;;;;;;;-1.99;89.90;98948.43;108413;1270;22524;-87
2023/11/30 19:58:14;;;;;;;113.00;53.00;;;;;;;-1.97;89.96;98936.50;108546;1272;25339;-89
2023/11/30 20:01:08;;;;;;;119.30;58.00;;;;;;;-1.93;89.95;98937.75;108370;1272;26301;-87
2023/11/30 20:04:43;;;;;;;124.60;55.30;;;;;;;-1.92;89.67;98935.36;108447;1265;26745;-86
2023/11/30 20:07:37;;;;;;;113.60;54.00;;;;;;;-1.93;89.67;98943.38;108306;1272;25616;-86
2023/11/30 20:10:50;;;;;;;110.90;55.40;;;;;;;-1.94;89.79;98944.25;108754;1267;22514;-87
2023/11/30 20:13:43;;;;;;;119.30;55.90;;;;;;;-1.95;89.87;98948.56;108424;1272;22610;-84
2023/11/30 20:16:39;;;;;;;115.40;54.10;;;;;;;-1.95;89.68;98954.67;108612;1272;22619;-85
2023/11/30 20:19:56;;;;;;;114.00;54.80;;;;;;;-1.96;89.55;98955.23;108444;1267;22536;-84
2023/11/30 20:23:27;;;;;;;111.70;50.30;;;;;;;-2.00;89.81;98947.68;108773;1272;22641;-84
2023/11/30 20:26:43;;;;;;;108.10;48.40;;;;;;;-2.02;89.79;98941.85;108519;1272;23698;-84
2023/11/30 20:29:55;;;;;;;105.60;46.60;;;;;;;-2.04;89.72;98947.53;108634;1272;22649;-83
2023/11/30 20:33:08;;;;;;;112.50;53.10;;;;;;;-2.06;89.63;98944.61;108308;1271;23503;-83
2023/11/30 20:36:20;;;;;;;115.80;50.30;;;;;;;-2.08;89.55;98959.10;108967;1264;25072;-85
2023/11/30 20:39:32;;;;;;;114.40;53.10;;;;;;;-2.11;89.30;98966.20;108552;1268;22588;-85
2023/11/30 20:42:25;;;;;;;103.80;47.00;;;;;;;-2.15;89.53;98971.38;108621;1265;26339;-85
2023/11/30 20:45:19;;;;;;;101.60;46.00;;;;;;;-2.23;89.90;98970.77;108417;1272;23885;-85
2023/11/30 20:48:32;;;;;;;104.90;48.20;;;;;;;-2.25;90.14;98977.45;108486;1265;22596;-86
2023/11/30 20:51:48;;;;;;;99.50;46.90;;;;;;;-2.22;90.23;98975.90;108306;1273;25513;-86
2023/11/30 20:54:42;;;;;;;106.10;48.40;;;;;;;-2.19;90.33;98973.88;108380;1272;22635;-86
2023/11/30 20:57:37;;;;;;;110.30;50.40;;;;;;;-2.15;90.37;98966.85;108258;1272;25258;-86
2023/11/30 21:00:33;;;;;;;113.90;53.80;;;;;;;-2.14;90.27;98962.84;108382;1272;25496;-86
2023/11/30 21:03:46;;;;;;;110.60;49.60;;;;;;;-2.13;90.23;98970.73;108444;1272;22670;-87
2023/11/30 21:07:19;;;;;;;118.80;54.40;;;;;;;-2.14;90.17;98969.31;108363;1272;22564;-85
2023/11/30 21:10:32;;;;;;;130.80;58.20;;;;;;;-2.19;90.29;98972.95;108285;1272;22511;-83
2023/11/30 21:14:08;;;;;;;121.50;54.30;;;;;;;-2.20;90.47;98979.14;108357;1267;24130;-84
2023/11/30 21:17:20;;;;;;;135.70;58.60;;;;;;;-2.19;90.53;98977.25;110032;1270;22661;-83
2023/11/30 21:20:53;;;;;;;122.10;57.20;;;;;;;-2.20;90.32;98983.28;108397;1272;22625;-86
2023/11/30 21:23:46;;;;;;;127.10;58.80;;;;;;;-2.25;90.66;98985.02;108461;1272;26845;-84
2023/11/30 21:27:43;;;;;;;129.60;58.60;;;;;;;-2.26;90.97;98982.56;108300;1262;22540;-85
2023/11/30 21:31:16;;;;;;;125.60;58.00;;;;;;;-2.24;91.01;98972.43;108339;1272;22726;-84
2023/11/30 21:34:49;;;;;;;138.20;62.60;;;;;;;-2.26;91.02;98972.55;108323;1273;24550;-85
2023/11/30 21:38:01;;;;;;;145.40;66.20;;;;;;;-2.29;91.05;98973.39;108124;1270;22633;-85
2023/11/30 21:41:38;;;;;;;165.20;75.90;;;;;;;-2.28;91.23;98976.75;108255;1272;22709;-84
2023/11/30 21:44:33;;;;;;;165.40;79.40;;;;;;;-2.27;91.47;98983.27;108265;1266;22617;-83
2023/11/30 21:47:46;;;;;;;162.50;76.90;;;;;;;-2.26;91.70;98977.47;108439;1272;22663;-83
2023/11/30 21:51:00;;;;;;;144.50;69.80;;;;;;;-2.24;91.63;98976.02;108293;1272;24372;-83
2023/11/30 21:53:54;;;;;;;139.10;66.80;;;;;;;-2.23;91.72;98974.61;108512;1272;25517;-86